sensor_id;sensor_type;location;lat;lon;timestamp;P1;durP1;ratioP1;P2;durP2;ratioP2
56285;SDS011;42191;47.562;9.686;2022-08-19T00:01:38;35.03;;;32.58;;
56285;SDS011;42191;47.562;9.686;2022-08-19T00:04:07;38.60;;;35.80;;
56285;SDS011;42191;47.562;9.686;2022-08-19T00:06:36;40.08;;;37.17;;
56285;SDS011;42191;47.562;9.686;2022-08-19T00:09:06;41.75;;;38.55;;
56285;SDS011;42191;47.562;9.686;2022-08-19T00:11:33;42.33;;;39.05;;
56285;SDS011;42191;47.562;9.686;2022-08-19T00:14:02;42.65;;;39.42;;
56285;SDS011;42191;47.562;9.686;2022-08-19T00:16:29;41.78;;;38.53;;
56285;SDS011;42191;47.562;9.686;2022-08-19T00:18:55;40.80;;;37.85;;
56285;SDS011;42191;47.562;9.686;2022-08-19T00:21:25;39.95;;;36.95;;
56285;SDS011;42191;47.562;9.686;2022-08-19T00:23:54;40.25;;;37.30;;
56285;SDS011;42191;47.562;9.686;2022-08-19T00:26:23;40.30;;;37.22;;
56285;SDS011;42191;47.562;9.686;2022-08-19T00:28:50;38.47;;;35.67;;
56285;SDS011;42191;47.562;9.686;2022-08-19T00:31:16;38.38;;;35.60;;
56285;SDS011;42191;47.562;9.686;2022-08-19T00:33:42;38.13;;;35.33;;
56285;SDS011;42191;47.562;9.686;2022-08-19T00:36:09;38.72;;;35.53;;
56285;SDS011;42191;47.562;9.686;2022-08-19T00:38:36;38.88;;;36.08;;
56285;SDS011;42191;47.562;9.686;2022-08-19T00:41:06;40.22;;;37.25;;
56285;SDS011;42191;47.562;9.686;2022-08-19T00:43:33;40.40;;;37.30;;
56285;SDS011;42191;47.562;9.686;2022-08-19T00:45:59;38.22;;;35.35;;
56285;SDS011;42191;47.562;9.686;2022-08-19T00:48:29;39.80;;;36.80;;
56285;SDS011;42191;47.562;9.686;2022-08-19T00:50:57;39.88;;;36.97;;
56285;SDS011;42191;47.562;9.686;2022-08-19T00:53:24;39.33;;;36.53;;
56285;SDS011;42191;47.562;9.686;2022-08-19T00:55:53;37.20;;;34.63;;
56285;SDS011;42191;47.562;9.686;2022-08-19T00:58:27;37.38;;;34.75;;
56285;SDS011;42191;47.562;9.686;2022-08-19T01:03:21;33.95;;;31.65;;
56285;SDS011;42191;47.562;9.686;2022-08-19T01:05:48;34.00;;;31.80;;
56285;SDS011;42191;47.562;9.686;2022-08-19T01:08:17;36.95;;;34.45;;
56285;SDS011;42191;47.562;9.686;2022-08-19T01:10:50;35.50;;;33.00;;
56285;SDS011;42191;47.562;9.686;2022-08-19T01:13:22;36.97;;;34.38;;
56285;SDS011;42191;47.562;9.686;2022-08-19T01:16:10;35.55;;;33.15;;
56285;SDS011;42191;47.562;9.686;2022-08-19T01:18:40;34.63;;;32.33;;
56285;SDS011;42191;47.562;9.686;2022-08-19T01:23:44;34.35;;;32.13;;
56285;SDS011;42191;47.562;9.686;2022-08-19T01:26:21;34.92;;;32.63;;
56285;SDS011;42191;47.562;9.686;2022-08-19T01:28:50;35.05;;;32.75;;
56285;SDS011;42191;47.562;9.686;2022-08-19T01:31:19;35.72;;;33.35;;
56285;SDS011;42191;47.562;9.686;2022-08-19T01:33:48;35.53;;;32.97;;
56285;SDS011;42191;47.562;9.686;2022-08-19T01:36:21;35.88;;;33.55;;
56285;SDS011;42191;47.562;9.686;2022-08-19T01:39:14;37.92;;;35.33;;
56285;SDS011;42191;47.562;9.686;2022-08-19T01:41:43;36.90;;;34.35;;
56285;SDS011;42191;47.562;9.686;2022-08-19T01:44:09;35.33;;;32.95;;
56285;SDS011;42191;47.562;9.686;2022-08-19T01:46:36;36.20;;;33.80;;
56285;SDS011;42191;47.562;9.686;2022-08-19T01:49:03;37.28;;;34.67;;
56285;SDS011;42191;47.562;9.686;2022-08-19T01:51:30;36.05;;;33.63;;
56285;SDS011;42191;47.562;9.686;2022-08-19T01:53:56;38.03;;;35.42;;
56285;SDS011;42191;47.562;9.686;2022-08-19T01:56:23;37.05;;;34.45;;
56285;SDS011;42191;47.562;9.686;2022-08-19T01:58:51;38.03;;;35.40;;
56285;SDS011;42191;47.562;9.686;2022-08-19T02:01:20;38.33;;;35.63;;
56285;SDS011;42191;47.562;9.686;2022-08-19T02:03:46;36.92;;;34.40;;
56285;SDS011;42191;47.562;9.686;2022-08-19T02:06:12;36.20;;;33.60;;
56285;SDS011;42191;47.562;9.686;2022-08-19T02:08:39;38.38;;;35.67;;
56285;SDS011;42191;47.562;9.686;2022-08-19T02:11:06;38.05;;;35.42;;
56285;SDS011;42191;47.562;9.686;2022-08-19T02:13:33;38.80;;;35.97;;
56285;SDS011;42191;47.562;9.686;2022-08-19T02:15:59;39.85;;;36.95;;
56285;SDS011;42191;47.562;9.686;2022-08-19T02:18:26;38.60;;;35.90;;
56285;SDS011;42191;47.562;9.686;2022-08-19T02:20:52;38.40;;;35.60;;
56285;SDS011;42191;47.562;9.686;2022-08-19T02:23:18;39.63;;;36.78;;
56285;SDS011;42191;47.562;9.686;2022-08-19T02:25:45;36.88;;;34.38;;
56285;SDS011;42191;47.562;9.686;2022-08-19T02:28:13;37.88;;;35.28;;
56285;SDS011;42191;47.562;9.686;2022-08-19T02:30:40;38.63;;;35.88;;
56285;SDS011;42191;47.562;9.686;2022-08-19T02:33:07;38.15;;;35.47;;
56285;SDS011;42191;47.562;9.686;2022-08-19T02:35:33;38.38;;;35.67;;
56285;SDS011;42191;47.562;9.686;2022-08-19T02:37:59;39.78;;;36.88;;
56285;SDS011;42191;47.562;9.686;2022-08-19T02:40:50;37.75;;;35.03;;
56285;SDS011;42191;47.562;9.686;2022-08-19T02:43:19;37.80;;;35.20;;
56285;SDS011;42191;47.562;9.686;2022-08-19T02:45:46;37.28;;;34.72;;
56285;SDS011;42191;47.562;9.686;2022-08-19T02:48:14;39.55;;;36.65;;
56285;SDS011;42191;47.562;9.686;2022-08-19T02:50:42;37.17;;;34.55;;
56285;SDS011;42191;47.562;9.686;2022-08-19T02:53:09;39.50;;;36.70;;
56285;SDS011;42191;47.562;9.686;2022-08-19T02:55:35;38.35;;;35.55;;
56285;SDS011;42191;47.562;9.686;2022-08-19T02:58:06;39.72;;;36.83;;
56285;SDS011;42191;47.562;9.686;2022-08-19T03:00:33;39.70;;;36.90;;
56285;SDS011;42191;47.562;9.686;2022-08-19T03:02:59;40.80;;;37.92;;
56285;SDS011;42191;47.562;9.686;2022-08-19T03:05:25;37.90;;;35.20;;
56285;SDS011;42191;47.562;9.686;2022-08-19T03:07:52;39.53;;;36.53;;
56285;SDS011;42191;47.562;9.686;2022-08-19T03:10:18;39.75;;;36.78;;
56285;SDS011;42191;47.562;9.686;2022-08-19T03:12:45;39.67;;;36.88;;
56285;SDS011;42191;47.562;9.686;2022-08-19T03:15:11;38.53;;;35.70;;
56285;SDS011;42191;47.562;9.686;2022-08-19T03:17:37;39.88;;;36.95;;
56285;SDS011;42191;47.562;9.686;2022-08-19T03:20:04;39.80;;;37.03;;
56285;SDS011;42191;47.562;9.686;2022-08-19T03:22:30;41.35;;;38.38;;
56285;SDS011;42191;47.562;9.686;2022-08-19T03:24:56;40.95;;;37.95;;
56285;SDS011;42191;47.562;9.686;2022-08-19T03:27:23;40.03;;;37.13;;
56285;SDS011;42191;47.562;9.686;2022-08-19T03:29:50;41.65;;;38.45;;
56285;SDS011;42191;47.562;9.686;2022-08-19T03:32:16;39.72;;;36.92;;
56285;SDS011;42191;47.562;9.686;2022-08-19T03:34:42;40.10;;;37.35;;
56285;SDS011;42191;47.562;9.686;2022-08-19T03:37:10;39.20;;;36.40;;
56285;SDS011;42191;47.562;9.686;2022-08-19T03:39:40;41.22;;;38.22;;
56285;SDS011;42191;47.562;9.686;2022-08-19T03:42:07;38.65;;;35.85;;
56285;SDS011;42191;47.562;9.686;2022-08-19T03:44:33;38.92;;;36.13;;
56285;SDS011;42191;47.562;9.686;2022-08-19T03:47:02;38.20;;;35.50;;
56285;SDS011;42191;47.562;9.686;2022-08-19T03:49:29;41.17;;;38.22;;
56285;SDS011;42191;47.562;9.686;2022-08-19T03:51:58;39.10;;;36.28;;
56285;SDS011;42191;47.562;9.686;2022-08-19T03:54:27;39.70;;;36.88;;
56285;SDS011;42191;47.562;9.686;2022-08-19T03:56:54;40.08;;;37.08;;
56285;SDS011;42191;47.562;9.686;2022-08-19T03:59:28;39.13;;;36.22;;
56285;SDS011;42191;47.562;9.686;2022-08-19T04:01:57;40.10;;;37.30;;
56285;SDS011;42191;47.562;9.686;2022-08-19T04:04:25;41.60;;;38.60;;
56285;SDS011;42191;47.562;9.686;2022-08-19T04:06:52;40.55;;;37.65;;
56285;SDS011;42191;47.562;9.686;2022-08-19T04:09:18;39.85;;;36.97;;
56285;SDS011;42191;47.562;9.686;2022-08-19T04:11:46;39.88;;;37.08;;
56285;SDS011;42191;47.562;9.686;2022-08-19T04:14:16;39.45;;;36.65;;
56285;SDS011;42191;47.562;9.686;2022-08-19T04:16:44;40.13;;;37.22;;
56285;SDS011;42191;47.562;9.686;2022-08-19T04:19:11;39.00;;;36.20;;
56285;SDS011;42191;47.562;9.686;2022-08-19T04:21:38;39.60;;;36.60;;
56285;SDS011;42191;47.562;9.686;2022-08-19T04:24:04;40.22;;;37.33;;
56285;SDS011;42191;47.562;9.686;2022-08-19T04:26:32;39.13;;;36.33;;
56285;SDS011;42191;47.562;9.686;2022-08-19T04:29:01;41.92;;;38.97;;
56285;SDS011;42191;47.562;9.686;2022-08-19T04:31:35;39.58;;;36.72;;
56285;SDS011;42191;47.562;9.686;2022-08-19T04:34:03;40.10;;;37.30;;
56285;SDS011;42191;47.562;9.686;2022-08-19T04:36:32;40.60;;;37.70;;
56285;SDS011;42191;47.562;9.686;2022-08-19T04:39:02;41.10;;;38.10;;
56285;SDS011;42191;47.562;9.686;2022-08-19T04:41:31;40.95;;;37.85;;
56285;SDS011;42191;47.562;9.686;2022-08-19T04:44:16;41.00;;;37.92;;
56285;SDS011;42191;47.562;9.686;2022-08-19T04:46:45;41.88;;;38.83;;
56285;SDS011;42191;47.562;9.686;2022-08-19T04:49:13;42.00;;;38.92;;
56285;SDS011;42191;47.562;9.686;2022-08-19T04:51:41;44.05;;;40.85;;
56285;SDS011;42191;47.562;9.686;2022-08-19T04:54:09;43.17;;;40.08;;
56285;SDS011;42191;47.562;9.686;2022-08-19T04:56:35;40.72;;;37.75;;
56285;SDS011;42191;47.562;9.686;2022-08-19T04:59:02;41.38;;;38.38;;
56285;SDS011;42191;47.562;9.686;2022-08-19T05:01:29;40.20;;;37.28;;
56285;SDS011;42191;47.562;9.686;2022-08-19T05:03:58;41.35;;;38.25;;
56285;SDS011;42191;47.562;9.686;2022-08-19T05:06:25;38.92;;;36.13;;
56285;SDS011;42191;47.562;9.686;2022-08-19T05:08:53;42.38;;;39.17;;
56285;SDS011;42191;47.562;9.686;2022-08-19T05:11:27;39.72;;;36.92;;
56285;SDS011;42191;47.562;9.686;2022-08-19T05:13:55;40.95;;;37.95;;
56285;SDS011;42191;47.562;9.686;2022-08-19T05:16:23;41.47;;;38.45;;
56285;SDS011;42191;47.562;9.686;2022-08-19T05:18:50;41.05;;;38.05;;
56285;SDS011;42191;47.562;9.686;2022-08-19T05:21:35;41.55;;;38.40;;
56285;SDS011;42191;47.562;9.686;2022-08-19T05:24:21;40.40;;;37.35;;
56285;SDS011;42191;47.562;9.686;2022-08-19T05:26:49;39.72;;;36.83;;
56285;SDS011;42191;47.562;9.686;2022-08-19T05:29:18;40.00;;;37.10;;
56285;SDS011;42191;47.562;9.686;2022-08-19T05:31:46;41.70;;;38.58;;
56285;SDS011;42191;47.562;9.686;2022-08-19T05:34:14;43.13;;;39.90;;
56285;SDS011;42191;47.562;9.686;2022-08-19T05:36:42;40.90;;;37.90;;
56285;SDS011;42191;47.562;9.686;2022-08-19T05:39:11;41.88;;;38.78;;
56285;SDS011;42191;47.562;9.686;2022-08-19T05:41:44;38.72;;;35.95;;
56285;SDS011;42191;47.562;9.686;2022-08-19T05:44:14;40.03;;;37.08;;
56285;SDS011;42191;47.562;9.686;2022-08-19T05:46:42;42.00;;;38.90;;
56285;SDS011;42191;47.562;9.686;2022-08-19T05:49:12;40.78;;;37.67;;
56285;SDS011;42191;47.562;9.686;2022-08-19T05:51:40;40.15;;;37.25;;
56285;SDS011;42191;47.562;9.686;2022-08-19T05:54:07;39.97;;;37.00;;
56285;SDS011;42191;47.562;9.686;2022-08-19T05:56:36;40.78;;;37.75;;
56285;SDS011;42191;47.562;9.686;2022-08-19T05:59:04;39.92;;;36.90;;
56285;SDS011;42191;47.562;9.686;2022-08-19T06:01:35;38.47;;;35.72;;
56285;SDS011;42191;47.562;9.686;2022-08-19T06:04:03;41.72;;;38.72;;
56285;SDS011;42191;47.562;9.686;2022-08-19T06:06:30;41.78;;;38.70;;
56285;SDS011;42191;47.562;9.686;2022-08-19T06:08:58;40.08;;;37.15;;
56285;SDS011;42191;47.562;9.686;2022-08-19T06:11:42;40.70;;;37.80;;
56285;SDS011;42191;47.562;9.686;2022-08-19T06:14:13;39.95;;;37.05;;
56285;SDS011;42191;47.562;9.686;2022-08-19T06:16:42;39.95;;;37.05;;
56285;SDS011;42191;47.562;9.686;2022-08-19T06:19:10;35.28;;;32.88;;
56285;SDS011;42191;47.562;9.686;2022-08-19T06:21:42;38.03;;;35.37;;
56285;SDS011;42191;47.562;9.686;2022-08-19T06:24:10;39.17;;;36.38;;
56285;SDS011;42191;47.562;9.686;2022-08-19T06:26:40;38.13;;;35.45;;
56285;SDS011;42191;47.562;9.686;2022-08-19T06:29:09;37.45;;;34.75;;
56285;SDS011;42191;47.562;9.686;2022-08-19T06:31:40;38.08;;;35.40;;
56285;SDS011;42191;47.562;9.686;2022-08-19T06:34:08;37.85;;;35.08;;
56285;SDS011;42191;47.562;9.686;2022-08-19T06:36:36;38.05;;;35.40;;
56285;SDS011;42191;47.562;9.686;2022-08-19T06:39:06;36.92;;;34.38;;
56285;SDS011;42191;47.562;9.686;2022-08-19T06:41:36;36.05;;;33.58;;
56285;SDS011;42191;47.562;9.686;2022-08-19T06:44:04;37.95;;;35.35;;
56285;SDS011;42191;47.562;9.686;2022-08-19T06:46:31;37.13;;;34.53;;
56285;SDS011;42191;47.562;9.686;2022-08-19T06:48:58;36.78;;;34.22;;
56285;SDS011;42191;47.562;9.686;2022-08-19T06:51:24;37.35;;;34.75;;
56285;SDS011;42191;47.562;9.686;2022-08-19T06:53:53;35.85;;;33.35;;
56285;SDS011;42191;47.562;9.686;2022-08-19T06:56:21;35.88;;;33.38;;
56285;SDS011;42191;47.562;9.686;2022-08-19T06:58:49;34.10;;;31.73;;
56285;SDS011;42191;47.562;9.686;2022-08-19T07:01:17;34.42;;;32.10;;
56285;SDS011;42191;47.562;9.686;2022-08-19T07:03:44;33.78;;;31.55;;
56285;SDS011;42191;47.562;9.686;2022-08-19T07:06:12;34.40;;;32.05;;
56285;SDS011;42191;47.562;9.686;2022-08-19T07:08:42;35.05;;;32.72;;
56285;SDS011;42191;47.562;9.686;2022-08-19T07:11:10;35.80;;;33.40;;
56285;SDS011;42191;47.562;9.686;2022-08-19T07:13:40;35.20;;;32.80;;
56285;SDS011;42191;47.562;9.686;2022-08-19T07:16:09;34.60;;;32.00;;
56285;SDS011;42191;47.562;9.686;2022-08-19T07:18:40;33.45;;;31.20;;
56285;SDS011;42191;47.562;9.686;2022-08-19T07:21:08;33.97;;;31.75;;
56285;SDS011;42191;47.562;9.686;2022-08-19T07:23:37;34.95;;;32.60;;
56285;SDS011;42191;47.562;9.686;2022-08-19T07:26:07;34.42;;;32.13;;
56285;SDS011;42191;47.562;9.686;2022-08-19T07:28:34;36.20;;;33.22;;
56285;SDS011;42191;47.562;9.686;2022-08-19T07:31:05;33.13;;;30.98;;
56285;SDS011;42191;47.562;9.686;2022-08-19T07:33:31;34.00;;;31.75;;
56285;SDS011;42191;47.562;9.686;2022-08-19T07:36:02;34.75;;;32.15;;
56285;SDS011;42191;47.562;9.686;2022-08-19T07:38:31;34.60;;;32.22;;
56285;SDS011;42191;47.562;9.686;2022-08-19T07:40:58;37.83;;;35.33;;
56285;SDS011;42191;47.562;9.686;2022-08-19T07:43:25;36.58;;;33.97;;
56285;SDS011;42191;47.562;9.686;2022-08-19T07:45:52;40.00;;;36.97;;
56285;SDS011;42191;47.562;9.686;2022-08-19T07:48:27;41.85;;;38.50;;
56285;SDS011;42191;47.562;9.686;2022-08-19T07:50:55;43.63;;;40.08;;
56285;SDS011;42191;47.562;9.686;2022-08-19T07:53:26;44.97;;;41.33;;
56285;SDS011;42191;47.562;9.686;2022-08-19T07:55:54;43.72;;;40.22;;
56285;SDS011;42191;47.562;9.686;2022-08-19T07:58:25;45.88;;;41.92;;
56285;SDS011;42191;47.562;9.686;2022-08-19T08:00:52;44.67;;;41.10;;
56285;SDS011;42191;47.562;9.686;2022-08-19T08:03:19;46.60;;;42.67;;
56285;SDS011;42191;47.562;9.686;2022-08-19T08:06:06;44.50;;;40.83;;
56285;SDS011;42191;47.562;9.686;2022-08-19T08:08:52;45.28;;;41.53;;
56285;SDS011;42191;47.562;9.686;2022-08-19T08:11:37;42.15;;;38.53;;
56285;SDS011;42191;47.562;9.686;2022-08-19T08:14:04;47.25;;;43.20;;
56285;SDS011;42191;47.562;9.686;2022-08-19T08:16:35;47.53;;;43.45;;
56285;SDS011;42191;47.562;9.686;2022-08-19T08:19:03;47.17;;;43.25;;
56285;SDS011;42191;47.562;9.686;2022-08-19T08:21:31;47.72;;;43.55;;
56285;SDS011;42191;47.562;9.686;2022-08-19T08:23:57;45.65;;;41.85;;
56285;SDS011;42191;47.562;9.686;2022-08-19T08:26:24;47.83;;;43.88;;
56285;SDS011;42191;47.562;9.686;2022-08-19T08:28:51;45.88;;;42.03;;
56285;SDS011;42191;47.562;9.686;2022-08-19T08:31:18;45.58;;;41.78;;
56285;SDS011;42191;47.562;9.686;2022-08-19T08:33:44;46.33;;;42.47;;
56285;SDS011;42191;47.562;9.686;2022-08-19T08:36:12;45.60;;;41.78;;
56285;SDS011;42191;47.562;9.686;2022-08-19T08:38:40;47.38;;;43.45;;
56285;SDS011;42191;47.562;9.686;2022-08-19T08:41:28;45.75;;;41.88;;
56285;SDS011;42191;47.562;9.686;2022-08-19T08:43:59;47.63;;;43.63;;
56285;SDS011;42191;47.562;9.686;2022-08-19T08:46:37;47.60;;;43.50;;
56285;SDS011;42191;47.562;9.686;2022-08-19T08:54:49;44.78;;;41.03;;
56285;SDS011;42191;47.562;9.686;2022-08-19T09:00:07;48.28;;;44.05;;
56285;SDS011;42191;47.562;9.686;2022-08-19T09:02:39;47.45;;;43.35;;
56285;SDS011;42191;47.562;9.686;2022-08-19T09:05:05;47.70;;;43.58;;
56285;SDS011;42191;47.562;9.686;2022-08-19T09:07:44;47.30;;;43.30;;
56285;SDS011;42191;47.562;9.686;2022-08-19T09:12:57;45.85;;;42.05;;
56285;SDS011;42191;47.562;9.686;2022-08-19T09:15:29;48.47;;;44.42;;
56285;SDS011;42191;47.562;9.686;2022-08-19T09:18:02;47.50;;;43.33;;
56285;SDS011;42191;47.562;9.686;2022-08-19T09:20:29;47.55;;;43.55;;
56285;SDS011;42191;47.562;9.686;2022-08-19T09:22:56;48.15;;;44.10;;
56285;SDS011;42191;47.562;9.686;2022-08-19T09:25:24;46.60;;;42.58;;
56285;SDS011;42191;47.562;9.686;2022-08-19T09:27:51;46.42;;;42.50;;
56285;SDS011;42191;47.562;9.686;2022-08-19T09:30:20;49.13;;;45.08;;
56285;SDS011;42191;47.562;9.686;2022-08-19T09:32:50;45.92;;;41.90;;
56285;SDS011;42191;47.562;9.686;2022-08-19T09:35:18;45.30;;;41.70;;
56285;SDS011;42191;47.562;9.686;2022-08-19T09:37:47;45.28;;;41.55;;
56285;SDS011;42191;47.562;9.686;2022-08-19T09:40:14;46.45;;;42.60;;
56285;SDS011;42191;47.562;9.686;2022-08-19T09:42:41;46.83;;;42.83;;
56285;SDS011;42191;47.562;9.686;2022-08-19T09:45:18;44.83;;;41.03;;
56285;SDS011;42191;47.562;9.686;2022-08-19T09:47:46;45.22;;;41.42;;
56285;SDS011;42191;47.562;9.686;2022-08-19T09:50:13;46.08;;;42.08;;
56285;SDS011;42191;47.562;9.686;2022-08-19T09:52:39;44.75;;;41.00;;
56285;SDS011;42191;47.562;9.686;2022-08-19T09:55:08;45.00;;;41.10;;
56285;SDS011;42191;47.562;9.686;2022-08-19T09:57:35;45.50;;;41.53;;
56285;SDS011;42191;47.562;9.686;2022-08-19T10:00:03;46.10;;;42.17;;
56285;SDS011;42191;47.562;9.686;2022-08-19T10:02:31;44.83;;;41.25;;
56285;SDS011;42191;47.562;9.686;2022-08-19T10:04:58;45.72;;;41.83;;
56285;SDS011;42191;47.562;9.686;2022-08-19T10:07:42;44.40;;;40.58;;
56285;SDS011;42191;47.562;9.686;2022-08-19T10:10:08;46.17;;;42.10;;
56285;SDS011;42191;47.562;9.686;2022-08-19T10:12:35;45.13;;;41.42;;
56285;SDS011;42191;47.562;9.686;2022-08-19T10:15:02;45.70;;;41.92;;
56285;SDS011;42191;47.562;9.686;2022-08-19T10:17:31;47.78;;;43.67;;
56285;SDS011;42191;47.562;9.686;2022-08-19T10:19:58;47.85;;;43.47;;
56285;SDS011;42191;47.562;9.686;2022-08-19T10:22:24;48.65;;;44.38;;
56285;SDS011;42191;47.562;9.686;2022-08-19T10:24:51;49.40;;;45.00;;
56285;SDS011;42191;47.562;9.686;2022-08-19T10:27:18;49.10;;;44.72;;
56285;SDS011;42191;47.562;9.686;2022-08-19T10:29:44;50.25;;;45.65;;
56285;SDS011;42191;47.562;9.686;2022-08-19T10:32:10;49.38;;;45.10;;
56285;SDS011;42191;47.562;9.686;2022-08-19T10:34:37;50.15;;;45.75;;
56285;SDS011;42191;47.562;9.686;2022-08-19T10:37:04;50.60;;;46.33;;
56285;SDS011;42191;47.562;9.686;2022-08-19T10:39:34;48.90;;;44.50;;
56285;SDS011;42191;47.562;9.686;2022-08-19T10:42:05;49.75;;;45.58;;
56285;SDS011;42191;47.562;9.686;2022-08-19T10:44:32;47.35;;;43.22;;
56285;SDS011;42191;47.562;9.686;2022-08-19T10:47:00;48.15;;;44.17;;
56285;SDS011;42191;47.562;9.686;2022-08-19T10:49:28;48.53;;;44.45;;
56285;SDS011;42191;47.562;9.686;2022-08-19T10:51:55;46.67;;;42.67;;
56285;SDS011;42191;47.562;9.686;2022-08-19T10:54:40;46.30;;;42.35;;
56285;SDS011;42191;47.562;9.686;2022-08-19T10:57:25;44.70;;;40.95;;
56285;SDS011;42191;47.562;9.686;2022-08-19T10:59:55;46.38;;;42.47;;
56285;SDS011;42191;47.562;9.686;2022-08-19T11:02:22;45.15;;;41.45;;
56285;SDS011;42191;47.562;9.686;2022-08-19T11:04:48;44.53;;;40.97;;
56285;SDS011;42191;47.562;9.686;2022-08-19T11:07:16;45.65;;;41.92;;
56285;SDS011;42191;47.562;9.686;2022-08-19T11:09:42;44.95;;;41.38;;
56285;SDS011;42191;47.562;9.686;2022-08-19T11:12:09;45.03;;;41.38;;
56285;SDS011;42191;47.562;9.686;2022-08-19T11:14:37;46.22;;;42.33;;
56285;SDS011;42191;47.562;9.686;2022-08-19T11:17:03;46.05;;;42.17;;
56285;SDS011;42191;47.562;9.686;2022-08-19T11:19:30;43.65;;;39.95;;
56285;SDS011;42191;47.562;9.686;2022-08-19T11:21:56;44.42;;;40.97;;
56285;SDS011;42191;47.562;9.686;2022-08-19T11:24:26;43.40;;;39.90;;
56285;SDS011;42191;47.562;9.686;2022-08-19T11:26:54;54.70;;;41.50;;
56285;SDS011;42191;47.562;9.686;2022-08-19T11:29:25;43.80;;;40.28;;
56285;SDS011;42191;47.562;9.686;2022-08-19T11:31:52;47.28;;;42.47;;
56285;SDS011;42191;47.562;9.686;2022-08-19T11:34:23;44.63;;;40.97;;
56285;SDS011;42191;47.562;9.686;2022-08-19T11:36:53;45.88;;;41.53;;
56285;SDS011;42191;47.562;9.686;2022-08-19T11:39:23;42.40;;;38.85;;
56285;SDS011;42191;47.562;9.686;2022-08-19T11:41:51;41.67;;;38.38;;
56285;SDS011;42191;47.562;9.686;2022-08-19T11:44:17;43.70;;;40.17;;
56285;SDS011;42191;47.562;9.686;2022-08-19T11:46:44;44.92;;;40.78;;
56285;SDS011;42191;47.562;9.686;2022-08-19T11:49:12;42.10;;;38.70;;
56285;SDS011;42191;47.562;9.686;2022-08-19T11:51:39;42.50;;;39.10;;
56285;SDS011;42191;47.562;9.686;2022-08-19T11:54:09;43.70;;;40.05;;
56285;SDS011;42191;47.562;9.686;2022-08-19T11:56:41;42.38;;;39.13;;
56285;SDS011;42191;47.562;9.686;2022-08-19T11:59:08;42.20;;;38.67;;
56285;SDS011;42191;47.562;9.686;2022-08-19T12:01:35;42.20;;;38.78;;
56285;SDS011;42191;47.562;9.686;2022-08-19T12:04:01;40.90;;;37.90;;
56285;SDS011;42191;47.562;9.686;2022-08-19T12:06:31;44.75;;;40.83;;
56285;SDS011;42191;47.562;9.686;2022-08-19T12:09:00;42.03;;;38.45;;
56285;SDS011;42191;47.562;9.686;2022-08-19T12:11:30;40.90;;;37.53;;
56285;SDS011;42191;47.562;9.686;2022-08-19T12:13:57;41.78;;;38.53;;
56285;SDS011;42191;47.562;9.686;2022-08-19T12:16:25;40.55;;;37.55;;
56285;SDS011;42191;47.562;9.686;2022-08-19T12:18:53;40.13;;;37.13;;
56285;SDS011;42191;47.562;9.686;2022-08-19T12:21:21;40.78;;;37.78;;
56285;SDS011;42191;47.562;9.686;2022-08-19T12:23:50;38.28;;;35.45;;
56285;SDS011;42191;47.562;9.686;2022-08-19T12:26:16;38.47;;;35.53;;
56285;SDS011;42191;47.562;9.686;2022-08-19T12:28:43;40.33;;;37.22;;
56285;SDS011;42191;47.562;9.686;2022-08-19T12:31:09;39.60;;;36.80;;
56285;SDS011;42191;47.562;9.686;2022-08-19T12:33:37;37.83;;;35.08;;
56285;SDS011;42191;47.562;9.686;2022-08-19T12:36:05;39.83;;;36.92;;
56285;SDS011;42191;47.562;9.686;2022-08-19T12:38:32;37.58;;;34.90;;
56285;SDS011;42191;47.562;9.686;2022-08-19T12:41:02;37.53;;;34.72;;
56285;SDS011;42191;47.562;9.686;2022-08-19T12:43:31;35.95;;;33.40;;
56285;SDS011;42191;47.562;9.686;2022-08-19T12:46:02;41.83;;;38.72;;
56285;SDS011;42191;47.562;9.686;2022-08-19T12:48:29;39.25;;;36.45;;
56285;SDS011;42191;47.562;9.686;2022-08-19T12:50:55;38.22;;;35.42;;
56285;SDS011;42191;47.562;9.686;2022-08-19T12:53:21;39.22;;;36.30;;
56285;SDS011;42191;47.562;9.686;2022-08-19T12:55:53;39.63;;;36.72;;
56285;SDS011;42191;47.562;9.686;2022-08-19T12:58:21;41.60;;;38.35;;
56285;SDS011;42191;47.562;9.686;2022-08-19T13:00:48;39.95;;;37.05;;
56285;SDS011;42191;47.562;9.686;2022-08-19T13:03:14;42.05;;;38.95;;
56285;SDS011;42191;47.562;9.686;2022-08-19T13:05:40;42.03;;;38.83;;
56285;SDS011;42191;47.562;9.686;2022-08-19T13:08:06;42.60;;;39.40;;
56285;SDS011;42191;47.562;9.686;2022-08-19T13:10:33;42.30;;;38.92;;
56285;SDS011;42191;47.562;9.686;2022-08-19T13:13:00;43.65;;;40.33;;
56285;SDS011;42191;47.562;9.686;2022-08-19T13:15:32;41.38;;;38.20;;
56285;SDS011;42191;47.562;9.686;2022-08-19T13:18:00;42.38;;;38.97;;
56285;SDS011;42191;47.562;9.686;2022-08-19T13:20:26;41.13;;;38.05;;
56285;SDS011;42191;47.562;9.686;2022-08-19T13:22:53;43.45;;;40.22;;
56285;SDS011;42191;47.562;9.686;2022-08-19T13:25:20;42.17;;;38.97;;
56285;SDS011;42191;47.562;9.686;2022-08-19T13:27:47;43.22;;;39.80;;
56285;SDS011;42191;47.562;9.686;2022-08-19T13:30:15;44.75;;;41.25;;
56285;SDS011;42191;47.562;9.686;2022-08-19T13:33:02;46.78;;;43.13;;
56285;SDS011;42191;47.562;9.686;2022-08-19T13:35:42;46.53;;;42.83;;
56285;SDS011;42191;47.562;9.686;2022-08-19T13:38:09;45.03;;;41.55;;
56285;SDS011;42191;47.562;9.686;2022-08-19T13:40:36;46.00;;;42.20;;
56285;SDS011;42191;47.562;9.686;2022-08-19T13:43:03;45.10;;;41.63;;
56285;SDS011;42191;47.562;9.686;2022-08-19T13:45:31;46.05;;;42.30;;
56285;SDS011;42191;47.562;9.686;2022-08-19T13:47:59;43.78;;;40.38;;
56285;SDS011;42191;47.562;9.686;2022-08-19T13:50:29;45.60;;;41.90;;
56285;SDS011;42191;47.562;9.686;2022-08-19T13:52:56;45.55;;;41.78;;
56285;SDS011;42191;47.562;9.686;2022-08-19T13:55:23;47.58;;;43.65;;
56285;SDS011;42191;47.562;9.686;2022-08-19T13:57:51;48.75;;;44.83;;
56285;SDS011;42191;47.562;9.686;2022-08-19T14:00:18;47.15;;;43.13;;
56285;SDS011;42191;47.562;9.686;2022-08-19T14:02:46;48.90;;;44.70;;
56285;SDS011;42191;47.562;9.686;2022-08-19T14:05:16;48.33;;;44.22;;
56285;SDS011;42191;47.562;9.686;2022-08-19T14:07:42;48.10;;;44.15;;
56285;SDS011;42191;47.562;9.686;2022-08-19T14:10:09;48.22;;;44.22;;
56285;SDS011;42191;47.562;9.686;2022-08-19T14:12:36;46.63;;;42.97;;
56285;SDS011;42191;47.562;9.686;2022-08-19T14:15:03;47.95;;;44.05;;
56285;SDS011;42191;47.562;9.686;2022-08-19T14:17:31;47.58;;;43.78;;
56285;SDS011;42191;47.562;9.686;2022-08-19T14:20:00;48.25;;;44.40;;
56285;SDS011;42191;47.562;9.686;2022-08-19T14:22:30;48.28;;;44.40;;
56285;SDS011;42191;47.562;9.686;2022-08-19T14:24:56;51.67;;;47.17;;
56285;SDS011;42191;47.562;9.686;2022-08-19T14:27:23;49.80;;;45.55;;
56285;SDS011;42191;47.562;9.686;2022-08-19T14:29:50;48.63;;;44.72;;
56285;SDS011;42191;47.562;9.686;2022-08-19T14:32:17;52.13;;;47.72;;
56285;SDS011;42191;47.562;9.686;2022-08-19T14:34:43;51.58;;;47.28;;
56285;SDS011;42191;47.562;9.686;2022-08-19T14:37:12;50.33;;;46.00;;
56285;SDS011;42191;47.562;9.686;2022-08-19T14:39:40;51.58;;;47.25;;
56285;SDS011;42191;47.562;9.686;2022-08-19T14:42:07;52.28;;;47.92;;
56285;SDS011;42191;47.562;9.686;2022-08-19T14:44:34;50.63;;;46.20;;
56285;SDS011;42191;47.562;9.686;2022-08-19T14:47:00;51.42;;;46.83;;